Time;durP1;ratioP1;P1;durP2;ratioP2;P2;SDS_P1;SDS_P2;PMS_P1;PMS_P2;Temp;Humidity;BMP_temperature;BMP_pressure;BME280_temperature;BME280_humidity;BME280_pressure;Samples;Min_cycle;Max_cycle;Signal;HPM_P1;HPM_P2
2021/01/13 00:00:21;;;;;;;11.17;6.60;;;0.50;99.90;;;;;;5045654;28;20174;-76
2021/01/13 00:02:47;;;;;;;10.97;7.37;;;0.50;99.90;;;;;;5041949;28;20429;-76
2021/01/13 00:05:13;;;;;;;9.13;6.47;;;0.60;99.90;;;;;;5044743;28;20455;-76
2021/01/13 00:07:40;;;;;;;13.70;7.17;;;0.70;99.90;;;;;;5024875;28;20459;-76
2021/01/13 00:10:06;;;;;;;10.67;6.83;;;0.90;99.90;;;;;;5026037;28;20586;-76
2021/01/13 00:12:32;;;;;;;8.03;6.80;;;1.00;99.90;;;;;;5044009;28;20424;-76
2021/01/13 00:14:57;;;;;;;11.40;7.40;;;1.00;99.90;;;;;;5042380;28;20416;-76
2021/01/13 00:17:23;;;;;;;6.47;5.70;;;1.10;99.90;;;;;;5044954;28;20596;-77
2021/01/13 00:19:48;;;;;;;8.70;6.50;;;1.10;99.90;;;;;;5041571;28;20176;-76
2021/01/13 00:22:14;;;;;;;10.70;6.57;;;1.10;99.90;;;;;;5044849;28;20183;-75
2021/01/13 00:24:39;;;;;;;7.00;5.53;;;1.20;99.90;;;;;;5024833;28;20223;-76
2021/01/13 00:27:05;;;;;;;7.13;6.20;;;1.20;99.90;;;;;;5042974;28;20277;-76
2021/01/13 00:29:30;;;;;;;6.23;5.40;;;1.20;99.90;;;;;;5043976;28;20176;-76
2021/01/13 00:32:00;;;;;;;6.23;5.00;;;1.20;99.90;;;;;;5024055;28;20211;-77
2021/01/13 00:34:27;;;;;;;7.43;4.40;;;1.20;99.90;;;;;;5044357;28;20200;-76
2021/01/13 00:36:54;;;;;;;5.90;5.40;;;1.20;99.90;;;;;;5041516;28;20513;-76
2021/01/13 00:39:19;;;;;;;13.70;5.67;;;1.20;99.90;;;;;;5044976;28;21004;-76
2021/01/13 00:41:45;;;;;;;9.90;5.53;;;1.30;99.90;;;;;;5041555;28;20392;-76
2021/01/13 00:44:13;;;;;;;8.30;4.27;;;1.30;99.90;;;;;;5043881;28;20298;-76
2021/01/13 00:46:40;;;;;;;7.10;5.10;;;1.30;99.90;;;;;;5042150;28;20221;-76
2021/01/13 00:49:07;;;;;;;8.00;4.83;;;1.30;99.90;;;;;;5043069;28;20427;-76
2021/01/13 00:51:37;;;;;;;6.63;4.70;;;1.40;99.90;;;;;;5043106;28;20417;-75
2021/01/13 00:54:04;;;;;;;5.30;4.50;;;1.40;99.90;;;;;;5042243;28;20800;-77
2021/01/13 00:56:30;;;;;;;7.17;4.57;;;1.40;99.90;;;;;;5043241;28;20419;-75
2021/01/13 00:58:57;;;;;;;14.10;4.47;;;1.50;99.90;;;;;;5041260;28;20418;-76
2021/01/13 01:01:25;;;;;;;3.87;3.57;;;1.50;99.90;;;;;;5044392;28;20712;-76
2021/01/13 01:03:51;;;;;;;5.30;3.90;;;1.50;99.90;;;;;;5040766;28;20444;-76
2021/01/13 01:06:17;;;;;;;4.87;3.97;;;1.50;99.90;;;;;;5036150;28;20425;-77
2021/01/13 01:08:44;;;;;;;4.80;3.80;;;1.60;99.90;;;;;;5025274;28;20923;-76
2021/01/13 01:11:11;;;;;;;10.80;3.77;;;1.60;99.90;;;;;;5041735;28;20183;-77
2021/01/13 01:13:37;;;;;;;6.67;2.90;;;1.60;99.90;;;;;;5042755;28;20786;-77
2021/01/13 01:16:03;;;;;;;6.30;2.97;;;1.60;99.90;;;;;;5042820;28;20399;-77
2021/01/13 01:18:28;;;;;;;12.67;3.57;;;1.60;99.90;;;;;;5041483;28;20661;-77
2021/01/13 01:20:54;;;;;;;9.40;2.87;;;1.70;99.90;;;;;;5043479;28;20456;-77
2021/01/13 01:23:19;;;;;;;4.33;2.50;;;1.70;99.90;;;;;;5022921;28;20521;-77
2021/01/13 01:25:45;;;;;;;4.30;2.50;;;1.60;99.90;;;;;;5043497;28;20189;-77
2021/01/13 01:28:10;;;;;;;4.30;2.90;;;1.70;99.90;;;;;;5041052;28;20680;-76
2021/01/13 01:30:36;;;;;;;7.33;2.30;;;1.70;99.90;;;;;;5042287;28;20181;-76
2021/01/13 01:33:01;;;;;;;7.80;4.00;;;1.70;99.90;;;;;;5042401;28;20170;-77
2021/01/13 01:35:27;;;;;;;4.40;3.83;;;1.70;99.90;;;;;;5041127;28;20203;-76
2021/01/13 01:37:53;;;;;;;7.23;3.20;;;1.70;99.90;;;;;;5042463;28;20187;-77
2021/01/13 01:40:19;;;;;;;2.70;2.50;;;1.70;99.90;;;;;;5022386;28;20178;-76
2021/01/13 01:42:50;;;;;;;6.73;2.37;;;1.70;99.90;;;;;;5040103;28;20769;-76
2021/01/13 01:45:19;;;;;;;2.57;2.37;;;1.70;99.90;;;;;;5041834;28;20951;-77
2021/01/13 01:48:00;;;;;;;3.83;2.60;;;1.70;99.90;;;;;;5032190;28;20464;-76
2021/01/13 01:50:28;;;;;;;3.90;2.80;;;1.70;99.90;;;;;;5031851;28;20443;-77
2021/01/13 01:53:22;;;;;;;5.57;2.20;;;1.70;99.90;;;;;;5033557;28;20455;-77
2021/01/13 01:56:20;;;;;;;6.90;2.70;;;1.80;99.90;;;;;;5018080;28;20410;-76
2021/01/13 01:58:48;;;;;;;6.43;2.43;;;1.80;99.90;;;;;;5036920;28;20515;-76
2021/01/13 02:01:17;;;;;;;2.57;2.37;;;1.70;99.90;;;;;;5022031;28;20456;-77
2021/01/13 02:03:52;;;;;;;3.60;2.40;;;1.70;99.90;;;;;;5037793;28;20470;-77
2021/01/13 02:06:19;;;;;;;4.40;2.20;;;1.70;99.90;;;;;;5035765;28;20417;-77
2021/01/13 02:08:46;;;;;;;6.37;2.63;;;1.80;99.90;;;;;;5037213;28;20416;-76
2021/01/13 02:11:17;;;;;;;4.30;2.17;;;1.70;99.90;;;;;;5040803;28;20506;-77
2021/01/13 02:13:47;;;;;;;2.70;2.07;;;1.80;99.90;;;;;;5037684;28;20465;-77
2021/01/13 02:16:15;;;;;;;4.53;2.70;;;1.80;99.90;;;;;;5041613;28;20433;-76
2021/01/13 02:18:42;;;;;;;3.60;3.30;;;1.80;99.90;;;;;;5038966;28;20446;-76
2021/01/13 02:21:13;;;;;;;3.93;2.57;;;1.70;99.90;;;;;;5037605;28;20455;-76
2021/01/13 02:23:46;;;;;;;15.30;3.60;;;1.70;99.90;;;;;;5042011;28;20426;-77
2021/01/13 02:26:20;;;;;;;5.57;2.37;;;1.70;99.90;;;;;;5039937;28;20515;-76
2021/01/13 02:28:57;;;;;;;2.80;2.43;;;1.70;99.90;;;;;;5042592;28;20483;-76
2021/01/13 02:31:29;;;;;;;4.47;2.60;;;1.70;99.90;;;;;;5035715;28;20428;-76
2021/01/13 02:34:18;;;;;;;8.03;2.60;;;1.70;99.90;;;;;;5039956;28;20415;-76
2021/01/13 02:37:17;;;;;;;4.30;2.70;;;1.70;99.90;;;;;;5037502;28;20425;-76
2021/01/13 02:39:45;;;;;;;2.20;1.90;;;1.60;99.90;;;;;;5041371;28;20435;-76
2021/01/13 02:42:20;;;;;;;4.30;2.60;;;1.60;99.90;;;;;;5035975;28;20965;-76
2021/01/13 02:45:07;;;;;;;10.83;2.87;;;1.60;99.90;;;;;;5037065;28;20475;-76
2021/01/13 02:47:52;;;;;;;5.47;2.83;;;1.60;99.90;;;;;;5035534;28;20585;-77
2021/01/13 02:50:26;;;;;;;5.43;1.97;;;1.60;99.90;;;;;;5031787;28;20444;-76
2021/01/13 02:53:16;;;;;;;5.13;2.20;;;1.60;99.90;;;;;;5036183;28;20519;-76
2021/01/13 02:56:10;;;;;;;2.50;2.00;;;1.70;99.90;;;;;;5040757;28;20449;-76
2021/01/13 02:58:37;;;;;;;9.63;3.10;;;1.60;99.90;;;;;;5040277;28;20423;-76
2021/01/13 03:01:08;;;;;;;5.23;2.93;;;1.60;99.90;;;;;;5019841;28;20420;-76
2021/01/13 03:03:36;;;;;;;7.40;2.40;;;1.60;99.90;;;;;;5035581;28;20447;-75
2021/01/13 03:06:09;;;;;;;3.40;2.90;;;1.60;99.90;;;;;;5041069;28;20981;-76
2021/01/13 03:08:51;;;;;;;2.70;2.17;;;1.60;99.90;;;;;;5022047;28;20471;-77
2021/01/13 03:11:20;;;;;;;3.03;1.60;;;1.60;99.90;;;;;;5039295;28;20417;-76
2021/01/13 03:13:46;;;;;;;3.60;2.30;;;1.60;99.90;;;;;;5035951;28;20465;-76
2021/01/13 03:16:13;;;;;;;4.83;2.57;;;1.60;99.90;;;;;;5041197;28;20424;-76
2021/01/13 03:19:04;;;;;;;4.97;2.40;;;1.60;99.90;;;;;;5020231;28;20189;-77
2021/01/13 03:21:41;;;;;;;5.10;2.60;;;1.60;99.90;;;;;;5037307;28;20417;-77
2021/01/13 03:24:14;;;;;;;6.53;2.00;;;1.60;99.90;;;;;;5037956;28;20465;-77
2021/01/13 03:26:45;;;;;;;5.30;2.40;;;1.60;99.90;;;;;;5039469;28;20577;-76
2021/01/13 03:29:18;;;;;;;9.40;2.50;;;1.60;99.90;;;;;;5039064;28;20783;-77
2021/01/13 03:32:05;;;;;;;5.37;3.03;;;1.50;99.90;;;;;;5042803;28;20512;-76
2021/01/13 03:34:33;;;;;;;9.07;2.93;;;1.50;99.90;;;;;;5040004;28;20429;-76
2021/01/13 03:37:08;;;;;;;3.37;1.63;;;1.50;99.90;;;;;;5042706;28;20450;-76
2021/01/13 03:39:36;;;;;;;4.80;2.77;;;1.50;99.90;;;;;;5040604;28;20528;-76
2021/01/13 03:42:14;;;;;;;3.33;2.43;;;1.50;99.90;;;;;;5024022;28;20979;-76
2021/01/13 03:44:42;;;;;;;5.50;2.93;;;1.50;99.90;;;;;;5041661;28;20415;-76
2021/01/13 03:47:29;;;;;;;3.93;3.10;;;1.50;99.90;;;;;;5041793;28;20525;-76
2021/01/13 03:50:17;;;;;;;5.23;2.40;;;1.50;99.90;;;;;;5035748;28;21030;-76
2021/01/13 03:53:12;;;;;;;2.87;2.40;;;1.40;99.90;;;;;;5041976;28;20821;-76
2021/01/13 03:55:40;;;;;;;6.80;2.70;;;1.40;99.90;;;;;;5039271;28;20431;-76
2021/01/13 03:58:08;;;;;;;4.73;2.97;;;1.40;99.90;;;;;;5023999;28;20420;-76
2021/01/13 04:01:03;;;;;;;3.33;2.37;;;1.40;99.90;;;;;;5040675;28;20840;-76
2021/01/13 04:03:37;;;;;;;4.53;2.63;;;1.30;99.90;;;;;;5041911;28;20437;-77
2021/01/13 04:06:12;;;;;;;9.00;2.80;;;1.30;99.90;;;;;;5044055;28;20790;-76
2021/01/13 04:08:46;;;;;;;6.20;2.50;;;1.30;99.90;;;;;;5041082;28;20503;-74
2021/01/13 04:11:19;;;;;;;3.33;3.03;;;1.30;99.90;;;;;;5044660;28;20458;-77
2021/01/13 04:13:47;;;;;;;6.33;3.40;;;1.20;99.90;;;;;;5040204;28;20454;-75
2021/01/13 04:16:15;;;;;;;4.87;2.40;;;1.20;99.90;;;;;;5039703;28;20875;-77
2021/01/13 04:18:43;;;;;;;4.20;2.63;;;1.20;99.90;;;;;;5020502;28;20412;-76
2021/01/13 04:21:12;;;;;;;4.03;3.03;;;1.10;99.90;;;;;;5042767;28;20437;-77
2021/01/13 04:23:38;;;;;;;3.50;3.00;;;1.10;99.90;;;;;;5039553;28;20451;-76
2021/01/13 04:26:05;;;;;;;11.23;3.37;;;1.00;99.90;;;;;;5042999;28;20425;-76
2021/01/13 04:28:31;;;;;;;6.07;3.30;;;1.00;99.90;;;;;;5039579;28;20495;-75
2021/01/13 04:30:57;;;;;;;4.30;3.67;;;0.90;99.90;;;;;;5023250;28;20441;-76
2021/01/13 04:33:24;;;;;;;5.10;2.93;;;1.00;99.90;;;;;;5039277;28;20420;-76
2021/01/13 04:35:50;;;;;;;4.03;2.80;;;0.90;99.90;;;;;;5039831;28;20460;-76
2021/01/13 04:38:22;;;;;;;4.87;3.60;;;0.80;99.90;;;;;;5044485;28;20486;-77
2021/01/13 04:41:06;;;;;;;7.67;3.50;;;0.80;99.90;;;;;;5038448;28;20436;-76
2021/01/13 04:43:53;;;;;;;4.13;3.50;;;0.80;99.90;;;;;;5040380;28;20449;-76
2021/01/13 04:46:36;;;;;;;4.90;3.33;;;0.70;99.90;;;;;;5035945;28;20440;-74
2021/01/13 04:49:02;;;;;;;5.40;3.50;;;0.60;99.90;;;;;;5019885;28;20759;-76
2021/01/13 04:51:32;;;;;;;6.90;3.73;;;0.60;99.90;;;;;;5038932;28;20766;-77
2021/01/13 04:54:03;;;;;;;6.57;3.00;;;0.40;99.90;;;;;;5041456;28;20548;-76
2021/01/13 04:56:37;;;;;;;5.60;3.70;;;0.40;99.90;;;;;;5019392;28;20453;-77
2021/01/13 04:59:47;;;;;;;4.53;3.20;;;0.30;99.90;;;;;;5024322;28;20402;-77
2021/01/13 05:02:16;;;;;;;5.93;4.07;;;0.30;99.90;;;;;;5011499;28;20769;-76
2021/01/13 05:05:03;;;;;;;4.90;2.73;;;0.30;99.90;;;;;;5042384;28;20428;-76
2021/01/13 05:07:39;;;;;;;6.33;4.20;;;0.20;99.90;;;;;;5036356;28;20809;-76
2021/01/13 05:10:08;;;;;;;9.87;3.10;;;0.20;99.90;;;;;;5040756;28;20425;-76
2021/01/13 05:12:51;;;;;;;11.70;3.00;;;0.20;99.90;;;;;;5015909;28;20403;-76
2021/01/13 05:15:40;;;;;;;6.77;3.40;;;0.20;99.90;;;;;;5021966;28;20503;-76
2021/01/13 05:18:09;;;;;;;8.47;3.40;;;0.20;99.90;;;;;;5036914;28;20448;-76
2021/01/13 05:20:39;;;;;;;10.27;4.10;;;0.10;99.90;;;;;;5041689;28;20471;-77
2021/01/13 05:23:06;;;;;;;6.03;3.80;;;0.20;99.90;;;;;;5036663;28;20419;-75
2021/01/13 05:25:49;;;;;;;5.43;3.80;;;0.10;99.90;;;;;;5040687;28;20448;-78
2021/01/13 05:28:16;;;;;;;9.70;3.80;;;0.10;99.90;;;;;;5037058;28;20468;-76
2021/01/13 05:30:48;;;;;;;3.17;2.87;;;0.00;99.90;;;;;;5037463;28;20435;-76
2021/01/13 05:33:16;;;;;;;8.83;2.93;;;0.10;99.90;;;;;;5038826;28;20414;-76
2021/01/13 05:35:45;;;;;;;4.37;3.27;;;0.00;99.90;;;;;;5035616;28;20451;-77
2021/01/13 05:38:13;;;;;;;6.50;3.80;;;0.00;99.90;;;;;;5039022;28;20418;-76
2021/01/13 05:40:50;;;;;;;14.27;3.80;;;0.00;99.90;;;;;;5041590;28;20418;-76
2021/01/13 05:43:18;;;;;;;4.97;4.07;;;0.00;99.90;;;;;;5038318;28;20449;-77
2021/01/13 05:45:44;;;;;;;10.93;3.70;;;0.00;99.90;;;;;;5023255;28;20891;-76
2021/01/13 05:48:24;;;;;;;8.20;3.80;;;0.00;99.90;;;;;;5041426;28;20515;-77
2021/01/13 05:50:55;;;;;;;10.47;4.30;;;0.00;99.90;;;;;;5025967;28;20790;-76
2021/01/13 05:56:03;;;;;;;13.10;5.93;;;0.00;99.90;;;;;;5107635;27;20594;-76
2021/01/13 05:58:29;;;;;;;10.43;4.83;;;-0.10;99.90;;;;;;5119847;28;20526;-77
2021/01/13 06:00:59;;;;;;;11.30;4.70;;;-0.10;99.90;;;;;;5114027;28;20418;-75
2021/01/13 06:03:29;;;;;;;5.47;4.13;;;-0.20;99.90;;;;;;5113347;28;20399;-75
2021/01/13 06:05:59;;;;;;;8.70;4.73;;;-0.20;99.90;;;;;;5094778;28;20616;-75
2021/01/13 06:08:27;;;;;;;4.40;3.87;;;-0.20;99.90;;;;;;5090610;28;20519;-77
2021/01/13 06:10:56;;;;;;;5.70;3.73;;;-0.20;99.90;;;;;;5089804;28;20471;-76
2021/01/13 06:13:29;;;;;;;6.03;3.40;;;-0.20;99.90;;;;;;5091242;28;20467;-77
2021/01/13 06:16:04;;;;;;;5.40;3.03;;;-0.20;99.90;;;;;;5090128;28;20504;-77
2021/01/13 06:18:32;;;;;;;9.37;4.43;;;-0.20;99.90;;;;;;5090967;28;20391;-77
2021/01/13 06:20:59;;;;;;;12.23;4.63;;;-0.20;99.90;;;;;;5099155;28;20896;-77
2021/01/13 06:23:28;;;;;;;8.43;3.30;;;-0.20;99.90;;;;;;5093751;28;20404;-74
2021/01/13 06:25:55;;;;;;;4.40;3.40;;;-0.20;99.90;;;;;;5095806;28;20399;-76
2021/01/13 06:28:25;;;;;;;12.93;4.83;;;-0.20;99.90;;;;;;5087645;28;20419;-77
2021/01/13 06:31:04;;;;;;;13.50;4.10;;;-0.10;99.90;;;;;;5093838;28;20569;-77
2021/01/13 06:33:57;;;;;;;5.80;3.70;;;-0.10;99.90;;;;;;5092345;28;20461;-76
2021/01/13 06:36:31;;;;;;;7.63;3.07;;;-0.10;99.90;;;;;;5092559;28;20809;-76
2021/01/13 06:38:58;;;;;;;9.83;3.60;;;-0.10;99.90;;;;;;5091855;28;20452;-77
2021/01/13 06:41:25;;;;;;;4.43;4.07;;;0.00;99.90;;;;;;5095922;28;20985;-78
2021/01/13 06:44:02;;;;;;;6.63;5.17;;;0.00;99.90;;;;;;5093730;28;20409;-77
2021/01/13 06:46:29;;;;;;;11.97;3.60;;;0.00;99.90;;;;;;5094264;28;20400;-77
2021/01/13 06:48:56;;;;;;;6.43;3.13;;;0.00;99.90;;;;;;5099109;28;20478;-77
2021/01/13 06:51:23;;;;;;;5.47;3.37;;;0.00;99.90;;;;;;5093196;28;20429;-77
2021/01/13 06:53:50;;;;;;;7.53;4.80;;;0.10;99.90;;;;;;5091372;28;20441;-76
2021/01/13 06:56:16;;;;;;;9.93;4.47;;;0.00;99.90;;;;;;5093242;28;20437;-75
2021/01/13 06:59:01;;;;;;;9.13;3.90;;;0.00;99.90;;;;;;5096611;28;20771;-73
2021/01/13 07:01:28;;;;;;;4.67;3.60;;;0.00;99.90;;;;;;5082145;28;20408;-76
2021/01/13 07:04:02;;;;;;;8.57;4.00;;;0.10;99.90;;;;;;5099693;28;20444;-74
2021/01/13 07:06:28;;;;;;;7.07;4.37;;;0.10;99.90;;;;;;5081645;28;20955;-74
2021/01/13 07:08:54;;;;;;;6.07;4.20;;;0.10;99.90;;;;;;5085252;28;20418;-74
2021/01/13 07:11:20;;;;;;;5.20;3.60;;;0.10;99.90;;;;;;5080770;28;20230;-75
2021/01/13 07:13:52;;;;;;;4.50;3.70;;;0.10;99.90;;;;;;5079276;28;20201;-75
2021/01/13 07:16:24;;;;;;;4.30;3.90;;;0.10;99.90;;;;;;5080681;28;20469;-75
2021/01/13 07:18:50;;;;;;;5.30;4.00;;;0.10;99.90;;;;;;5073137;28;20418;-74
2021/01/13 07:21:15;;;;;;;9.60;4.27;;;0.10;99.90;;;;;;5078045;28;20403;-74
2021/01/13 07:23:46;;;;;;;11.83;4.17;;;0.10;99.90;;;;;;5076417;28;20190;-74
2021/01/13 07:26:12;;;;;;;5.90;4.93;;;0.10;99.90;;;;;;5078062;28;20219;-74
2021/01/13 07:28:39;;;;;;;6.57;4.10;;;0.10;99.90;;;;;;5082640;28;20508;-74
2021/01/13 07:31:06;;;;;;;7.90;3.97;;;0.10;99.90;;;;;;5081081;28;20438;-74
2021/01/13 07:33:35;;;;;;;9.93;4.37;;;0.10;99.90;;;;;;5080674;28;20748;-74
2021/01/13 07:36:01;;;;;;;6.93;4.60;;;0.20;99.90;;;;;;5077255;28;20483;-74
2021/01/13 07:38:34;;;;;;;7.37;4.40;;;0.10;99.90;;;;;;5077445;28;20783;-74
2021/01/13 07:41:07;;;;;;;6.47;5.73;;;0.20;99.90;;;;;;5081998;28;20499;-75
2021/01/13 07:43:38;;;;;;;5.60;4.60;;;0.20;99.90;;;;;;5081443;28;20909;-74
2021/01/13 07:46:15;;;;;;;7.80;5.27;;;0.20;99.90;;;;;;5076188;28;20415;-74
2021/01/13 07:49:10;;;;;;;10.30;6.10;;;0.30;99.90;;;;;;5079796;28;20435;-74
2021/01/13 07:51:46;;;;;;;6.60;4.73;;;0.30;99.90;;;;;;5075310;28;20520;-75
2021/01/13 07:54:38;;;;;;;8.17;4.37;;;0.40;99.90;;;;;;5081063;28;20440;-74
2021/01/13 07:57:06;;;;;;;18.27;4.90;;;0.40;99.90;;;;;;5075372;28;20440;-74
2021/01/13 07:59:41;;;;;;;12.67;4.33;;;0.50;99.90;;;;;;5081022;28;20411;-74
2021/01/13 08:03:15;;;;;;;6.67;4.57;;;0.50;99.90;;;;;;5075447;28;20777;-75
2021/01/13 08:06:09;;;;;;;6.90;4.67;;;0.60;99.90;;;;;;5081830;28;20426;-75
2021/01/13 08:08:59;;;;;;;8.70;4.83;;;0.70;99.90;;;;;;5074990;28;20439;-74
2021/01/13 08:12:09;;;;;;;7.53;4.10;;;0.70;99.90;;;;;;5077487;28;20483;-74
2021/01/13 08:15:05;;;;;;;4.07;3.33;;;0.80;99.90;;;;;;5080513;28;20497;-74
2021/01/13 08:17:33;;;;;;;4.17;2.90;;;1.00;99.90;;;;;;5078179;28;20420;-74
2021/01/13 08:20:37;;;;;;;3.70;2.77;;;1.20;99.90;;;;;;5074739;28;21012;-74
2021/01/13 08:23:11;;;;;;;8.20;3.17;;;1.30;99.90;;;;;;5079418;28;20390;-74
2021/01/13 08:25:42;;;;;;;2.73;2.10;;;1.40;99.90;;;;;;5075224;28;20512;-73
2021/01/13 08:28:11;;;;;;;2.90;2.40;;;1.50;99.90;;;;;;5074356;28;20427;-73
2021/01/13 08:30:40;;;;;;;4.63;2.13;;;1.50;99.90;;;;;;5079784;28;20409;-73
2021/01/13 08:33:18;;;;;;;10.10;2.37;;;1.40;99.90;;;;;;5082012;28;20436;-73
2021/01/13 08:35:48;;;;;;;7.73;2.23;;;1.50;99.90;;;;;;5078831;28;20448;-74
2021/01/13 08:38:13;;;;;;;4.23;3.03;;;1.40;99.90;;;;;;5075599;28;20492;-74
2021/01/13 08:40:40;;;;;;;9.33;3.50;;;1.50;99.90;;;;;;5079506;28;20473;-75
2021/01/13 08:43:12;;;;;;;8.37;3.00;;;1.50;99.90;;;;;;5081823;28;20210;-74
2021/01/13 08:45:46;;;;;;;3.53;2.07;;;1.50;99.90;;;;;;5078448;28;20984;-76
2021/01/13 08:48:19;;;;;;;8.00;2.03;;;1.60;99.90;;;;;;5079145;28;20924;-74
2021/01/13 08:51:03;;;;;;;5.83;2.20;;;1.60;99.90;;;;;;5079157;28;20836;-73
2021/01/13 08:53:29;;;;;;;7.27;2.33;;;1.60;99.90;;;;;;5077686;28;20425;-74
2021/01/13 08:55:55;;;;;;;5.30;2.03;;;1.70;99.90;;;;;;5082972;28;20558;-74
2021/01/13 08:58:34;;;;;;;5.00;2.33;;;1.70;99.90;;;;;;5079682;28;20426;-74
2021/01/13 09:01:05;;;;;;;7.33;1.70;;;1.70;99.90;;;;;;5078123;28;20423;-73
2021/01/13 09:03:39;;;;;;;6.53;2.33;;;1.70;99.90;;;;;;5081551;28;20432;-73
2021/01/13 09:06:21;;;;;;;4.13;2.20;;;1.80;99.90;;;;;;5081958;28;20421;-73
2021/01/13 09:08:48;;;;;;;5.33;2.47;;;1.90;99.90;;;;;;5080666;28;20477;-73
2021/01/13 09:11:37;;;;;;;3.07;2.10;;;2.00;99.90;;;;;;5080301;28;20424;-74
2021/01/13 09:14:21;;;;;;;4.83;2.80;;;2.10;99.90;;;;;;5078183;28;20504;-74
2021/01/13 09:16:51;;;;;;;4.83;2.20;;;2.20;99.90;;;;;;5079714;28;20396;-73
2021/01/13 09:19:32;;;;;;;4.40;1.90;;;2.30;99.90;;;;;;5082589;28;20469;-73
2021/01/13 09:21:59;;;;;;;5.07;1.93;;;2.40;99.90;;;;;;5076965;28;20432;-74
2021/01/13 09:24:32;;;;;;;5.93;2.30;;;2.50;99.90;;;;;;5082807;28;20506;-73
2021/01/13 09:27:01;;;;;;;6.00;2.47;;;2.50;99.90;;;;;;5079719;28;20424;-73
2021/01/13 09:29:28;;;;;;;6.00;1.87;;;2.50;99.90;;;;;;5081997;28;20502;-73
2021/01/13 09:32:11;;;;;;;6.13;2.03;;;2.60;99.90;;;;;;5079208;28;20477;-74
2021/01/13 09:34:37;;;;;;;3.90;1.90;;;2.60;99.90;;;;;;5073021;28;20987;-74
2021/01/13 09:37:02;;;;;;;6.83;2.27;;;2.60;99.90;;;;;;5078946;28;20435;-73
2021/01/13 09:39:40;;;;;;;4.33;1.60;;;2.60;99.90;;;;;;5079736;28;20256;-75
2021/01/13 09:42:07;;;;;;;4.23;2.00;;;2.70;99.90;;;;;;5080817;28;20185;-73
2021/01/13 09:44:37;;;;;;;6.80;2.30;;;2.70;99.90;;;;;;5080471;28;20443;-73
2021/01/13 09:47:23;;;;;;;3.27;2.03;;;2.60;99.90;;;;;;5081065;28;20456;-74
2021/01/13 09:49:50;;;;;;;3.17;1.40;;;2.70;99.90;;;;;;5078773;28;20395;-74
2021/01/13 09:52:16;;;;;;;7.63;1.90;;;2.60;99.90;;;;;;5075900;28;20426;-75
2021/01/13 09:54:50;;;;;;;5.00;1.50;;;2.60;99.90;;;;;;5071955;28;20820;-74
2021/01/13 09:57:16;;;;;;;8.77;2.43;;;2.70;99.90;;;;;;5081762;28;20746;-73
2021/01/13 10:00:10;;;;;;;2.93;2.00;;;2.70;99.90;;;;;;5080216;28;20564;-74
2021/01/13 10:02:36;;;;;;;3.00;1.40;;;2.70;99.90;;;;;;5078987;28;20386;-74
2021/01/13 10:05:02;;;;;;;6.10;1.67;;;2.70;99.90;;;;;;5081340;28;20944;-73
2021/01/13 10:07:32;;;;;;;4.70;2.87;;;2.70;99.90;;;;;;5079275;28;20188;-74
2021/01/13 10:09:59;;;;;;;8.93;2.40;;;2.80;99.90;;;;;;5081801;28;20555;-74
2021/01/13 10:12:41;;;;;;;8.20;2.63;;;2.80;99.90;;;;;;5079157;28;20385;-74
2021/01/13 10:15:12;;;;;;;7.17;1.90;;;2.80;99.90;;;;;;5080584;28;20467;-73
2021/01/13 10:17:39;;;;;;;7.50;2.27;;;2.90;99.90;;;;;;5080557;28;20476;-74
2021/01/13 10:20:15;;;;;;;3.93;1.70;;;2.90;99.90;;;;;;5079468;28;20400;-74
2021/01/13 10:22:42;;;;;;;5.03;2.10;;;3.00;99.90;;;;;;5081169;28;20431;-74
2021/01/13 10:25:08;;;;;;;4.73;1.27;;;3.10;99.90;;;;;;5080165;28;20417;-75
2021/01/13 10:27:44;;;;;;;6.27;2.57;;;3.10;99.90;;;;;;5079852;28;20401;-74
2021/01/13 10:30:11;;;;;;;4.33;1.67;;;3.20;99.90;;;;;;5077933;28;20416;-74
2021/01/13 10:32:51;;;;;;;6.27;2.93;;;3.40;99.90;;;;;;5080421;28;20422;-75
2021/01/13 10:35:19;;;;;;;4.43;1.97;;;3.50;99.90;;;;;;5081800;28;20472;-74
2021/01/13 10:37:55;;;;;;;3.60;2.20;;;3.70;99.90;;;;;;5078988;28;20394;-74
2021/01/13 10:40:22;;;;;;;3.10;1.93;;;4.20;99.90;;;;;;5071590;28;20500;-73
2021/01/13 10:42:50;;;;;;;5.70;1.80;;;4.50;99.90;;;;;;5080565;28;20905;-74
2021/01/13 10:45:16;;;;;;;2.87;2.43;;;5.10;99.90;;;;;;5085332;28;20514;-73
2021/01/13 10:48:02;;;;;;;5.13;2.60;;;5.70;99.90;;;;;;5083059;28;20442;-73
2021/01/13 10:50:32;;;;;;;5.97;2.83;;;6.40;99.90;;;;;;5080109;28;20462;-74
2021/01/13 10:52:59;;;;;;;8.40;3.00;;;6.40;99.90;;;;;;5083731;28;20429;-74
2021/01/13 10:55:27;;;;;;;5.43;1.80;;;6.10;99.90;;;;;;5082218;28;20822;-73
2021/01/13 10:57:54;;;;;;;3.03;2.10;;;5.60;99.90;;;;;;5085202;28;20419;-74
2021/01/13 11:00:23;;;;;;;3.30;2.13;;;5.40;99.90;;;;;;5078539;28;20917;-74
2021/01/13 11:02:57;;;;;;;7.93;1.67;;;5.30;99.90;;;;;;5085359;28;20487;-73
2021/01/13 11:05:24;;;;;;;7.57;1.67;;;5.30;99.90;;;;;;5078626;28;20952;-74
2021/01/13 11:07:56;;;;;;;5.40;1.43;;;5.30;99.90;;;;;;5077608;28;20420;-73
2021/01/13 11:10:23;;;;;;;5.00;1.40;;;5.30;99.90;;;;;;5078306;28;20428;-73
2021/01/13 11:13:02;;;;;;;3.50;1.43;;;5.40;99.90;;;;;;5083887;28;20572;-73
2021/01/13 11:15:28;;;;;;;2.80;1.20;;;5.20;99.90;;;;;;5079650;28;20465;-74
2021/01/13 11:17:56;;;;;;;5.53;1.27;;;5.20;99.90;;;;;;5085012;28;20421;-73
2021/01/13 11:20:23;;;;;;;4.13;1.63;;;5.20;99.90;;;;;;5077804;28;20537;-74
2021/01/13 11:22:57;;;;;;;5.13;1.50;;;5.30;99.90;;;;;;5079447;28;20409;-74
2021/01/13 11:25:30;;;;;;;2.50;1.13;;;5.20;99.90;;;;;;5081318;28;20406;-74
2021/01/13 11:28:02;;;;;;;4.53;2.90;;;5.10;99.90;;;;;;5078149;28;20425;-75
2021/01/13 11:30:30;;;;;;;2.63;1.17;;;4.90;99.90;;;;;;5085362;28;20427;-74
2021/01/13 11:33:01;;;;;;;4.73;1.67;;;5.00;99.90;;;;;;5081164;28;20477;-74
2021/01/13 11:35:34;;;;;;;13.00;2.33;;;4.90;99.90;;;;;;5084587;28;20471;-74
2021/01/13 11:39:07;;;;;;;5.17;1.40;;;4.90;99.90;;;;;;5081659;28;20448;-74
2021/01/13 11:41:58;;;;;;;4.80;1.37;;;4.80;99.90;;;;;;4989755;28;20430;-73
2021/01/13 11:44:46;;;;;;;5.80;1.90;;;4.60;99.90;;;;;;5078945;28;20427;-73
2021/01/13 11:47:22;;;;;;;4.97;1.50;;;4.30;99.90;;;;;;5071947;28;20857;-73
2021/01/13 11:49:53;;;;;;;2.30;1.27;;;4.40;99.90;;;;;;5081430;28;20426;-74
2021/01/13 11:52:20;;;;;;;4.67;1.30;;;4.40;99.90;;;;;;5084396;28;20419;-74
2021/01/13 11:54:54;;;;;;;6.73;1.20;;;4.50;99.90;;;;;;5080394;28;20467;-74
2021/01/13 11:57:28;;;;;;;3.33;0.70;;;4.50;99.90;;;;;;5085378;28;20398;-73
2021/01/13 12:00:12;;;;;;;5.20;1.13;;;4.50;99.90;;;;;;5077312;28;20414;-75
2021/01/13 12:02:38;;;;;;;1.07;0.60;;;4.60;99.90;;;;;;5081202;28;20420;-73
2021/01/13 12:05:05;;;;;;;2.70;1.33;;;4.50;99.90;;;;;;5082973;28;20500;-73
2021/01/13 12:07:31;;;;;;;5.00;1.20;;;4.50;99.90;;;;;;5080645;28;20908;-73
2021/01/13 12:10:11;;;;;;;10.73;2.10;;;4.50;99.90;;;;;;5080925;28;20530;-74
2021/01/13 12:12:36;;;;;;;1.50;1.10;;;4.50;99.90;;;;;;5081405;28;20176;-75
2021/01/13 12:15:10;;;;;;;3.77;2.00;;;4.60;99.90;;;;;;5081617;28;20441;-73
2021/01/13 12:17:48;;;;;;;4.20;1.57;;;4.60;99.90;;;;;;5082331;28;20689;-73
2021/01/13 12:20:27;;;;;;;3.33;1.73;;;4.50;99.90;;;;;;5083436;28;20394;-74
2021/01/13 12:22:53;;;;;;;2.77;1.63;;;4.40;99.90;;;;;;5076982;28;20422;-74
2021/01/13 12:25:24;;;;;;;4.63;1.17;;;4.50;99.90;;;;;;5083962;28;20435;-74
2021/01/13 12:28:04;;;;;;;4.47;1.07;;;4.40;99.90;;;;;;5080094;28;20181;-74
2021/01/13 12:30:29;;;;;;;4.10;1.03;;;4.40;99.90;;;;;;5078516;28;20428;-75
2021/01/13 12:32:57;;;;;;;4.70;1.30;;;4.50;99.90;;;;;;5083602;28;20739;-74
2021/01/13 12:35:27;;;;;;;1.57;1.10;;;4.50;99.90;;;;;;5078893;28;20205;-74
2021/01/13 12:37:53;;;;;;;1.77;1.47;;;4.50;99.90;;;;;;5076504;28;20929;-74
2021/01/13 12:40:33;;;;;;;6.50;1.50;;;4.60;99.90;;;;;;5083749;28;20402;-74
2021/01/13 12:43:16;;;;;;;3.80;1.17;;;4.60;99.90;;;;;;5077676;28;20184;-74
2021/01/13 12:45:43;;;;;;;2.63;0.90;;;4.60;99.90;;;;;;5081217;28;20448;-74
2021/01/13 12:48:09;;;;;;;5.03;1.60;;;4.60;99.90;;;;;;5078067;28;20409;-75
2021/01/13 12:50:35;;;;;;;4.33;0.83;;;4.60;99.90;;;;;;5082211;28;20417;-74
2021/01/13 12:53:00;;;;;;;4.20;0.90;;;4.70;99.90;;;;;;5080740;28;20194;-74
2021/01/13 12:55:26;;;;;;;7.30;0.90;;;4.80;99.90;;;;;;5083093;28;20831;-73
2021/01/13 12:57:51;;;;;;;1.10;0.93;;;4.90;99.90;;;;;;5079514;28;20596;-74
2021/01/13 13:00:17;;;;;;;2.97;0.87;;;4.80;99.90;;;;;;5083074;28;20179;-73
2021/01/13 13:02:43;;;;;;;2.50;0.80;;;4.80;99.90;;;;;;5080817;28;20230;-73
2021/01/13 13:05:09;;;;;;;3.57;0.97;;;4.80;99.90;;;;;;5081020;28;20687;-74
2021/01/13 13:07:35;;;;;;;1.33;0.60;;;4.80;99.90;;;;;;5081472;28;20189;-72
2021/01/13 13:10:01;;;;;;;3.73;0.70;;;4.90;99.90;;;;;;5080445;28;20433;-74
2021/01/13 13:12:27;;;;;;;6.37;1.03;;;5.00;99.90;;;;;;5083109;28;20842;-74
2021/01/13 13:14:52;;;;;;;1.80;0.87;;;5.00;99.90;;;;;;5079762;28;20468;-74
2021/01/13 13:17:18;;;;;;;5.37;0.77;;;5.00;99.90;;;;;;5082812;28;20203;-74
2021/01/13 13:19:43;;;;;;;5.53;0.90;;;4.90;99.90;;;;;;5082097;28;20176;-74
2021/01/13 13:22:09;;;;;;;1.43;1.13;;;5.00;99.90;;;;;;5079110;28;20175;-75
2021/01/13 13:24:34;;;;;;;1.10;0.60;;;4.90;99.90;;;;;;5080646;28;20420;-73